Time;durP1;ratioP1;P1;durP2;ratioP2;P2;SDS_P1;SDS_P2;PMS_P1;PMS_P2;Temp;Humidity;BMP_temperature;BMP_pressure;BME280_temperature;BME280_humidity;BME280_pressure;Samples;Min_cycle;Max_cycle;Signal;HPM_P1;HPM_P2
2023/07/01 00:00:25;;;;;;;;;1.00;1.00;;;;;21.87;60.44;-8655.75;5001134;28;45455;-86
2023/07/01 00:02:52;;;;;;;;;1.33;1.00;;;;;22.02;60.50;-10346.25;4971642;28;45528;-86
2023/07/01 00:05:18;;;;;;;;;0.33;0.33;;;;;22.03;60.50;-10684.09;4961622;28;45448;-87
2023/07/01 00:07:44;;;;;;;;;4.00;2.00;;;;;21.87;59.91;-10682.31;4922972;28;45512;-87
2023/07/01 00:10:09;;;;;;;;;3.00;3.00;;;;;21.91;59.83;-8993.97;4930897;28;45790;-86
2023/07/01 00:12:34;;;;;;;;;4.33;3.00;;;;;21.75;60.00;-9667.91;4923539;28;45604;-86
2023/07/01 00:15:00;;;;;;;;;4.67;4.67;;;;;21.62;62.22;-12704.00;4918121;28;45595;-86
2023/07/01 00:17:25;;;;;;;;;6.00;4.00;;;;;21.54;62.30;-14389.06;4924071;28;46087;-87
2023/07/01 00:19:50;;;;;;;;;2.00;2.00;;;;;21.46;62.72;-16746.75;4916183;28;45461;-87
2023/07/01 00:22:16;;;;;;;;;3.33;1.33;;;;;20.97;62.86;-17746.13;4917235;28;45426;-85
2023/07/01 00:24:41;;;;;;;;;2.00;2.00;;;;;21.25;63.70;-18762.56;4902496;28;45376;-84
2023/07/01 00:27:06;;;;;;;;;1.00;1.00;;;;;21.23;64.41;-19771.88;4934283;28;45403;-84
2023/07/01 00:29:32;;;;;;;;;1.67;1.33;;;;;21.15;64.67;-19769.75;4934388;28;45433;-84
2023/07/01 00:31:57;;;;;;;;;1.33;1.33;;;;;21.03;64.89;-19768.66;4933033;28;45455;-84
2023/07/01 00:34:22;;;;;;;;;1.00;1.00;;;;;20.99;64.73;-19767.47;4915394;28;45337;-84
2023/07/01 00:36:48;;;;;;;;;2.00;2.00;;;;;20.96;64.95;-19766.81;4919027;28;45503;-84
2023/07/01 00:39:13;;;;;;;;;3.00;1.33;;;;;20.92;66.11;-19765.75;4932346;28;45459;-84
2023/07/01 00:41:38;;;;;;;;;1.00;1.00;;;;;20.49;66.40;-19754.53;4934323;28;45448;-84
2023/07/01 00:44:04;;;;;;;;;4.00;1.00;;;;;20.92;67.31;-19765.59;4935786;28;45435;-85
2023/07/01 00:46:33;;;;;;;;;1.00;1.00;;;;;20.53;67.84;-19755.47;4933845;28;45538;-84
2023/07/01 00:49:02;;;;;;;;;1.00;1.00;;;;;20.82;68.45;-19763.22;4932666;28;45477;-85
2023/07/01 00:51:28;;;;;;;;;1.00;1.00;;;;;20.41;67.69;-19752.41;4914777;28;45474;-83
2023/07/01 00:53:55;;;;;;;;;3.00;2.00;;;;;20.64;68.94;-19758.53;4926389;28;45914;-84
2023/07/01 00:56:20;;;;;;;;;2.00;2.00;;;;;20.64;68.81;-19758.53;4933684;28;45789;-84
2023/07/01 00:58:46;;;;;;;;;1.00;1.00;;;;;20.59;69.63;-19757.09;4923076;28;45332;-83
2023/07/01 05:01:01;;;;;;;;;1.00;1.00;;;;;19.95;95.05;133062.69;5595608;23;46670;-85
2023/07/01 05:03:27;;;;;;;;;0.00;0.00;;;;;19.75;94.40;132330.56;4928698;28;45737;-85
2023/07/01 05:05:52;;;;;;;;;0.00;0.00;;;;;19.65;94.73;132003.97;4928235;28;55976;-87
2023/07/01 05:08:17;;;;;;;;;0.00;0.00;;;;;20.02;94.10;132204.78;4932021;28;45610;-84
2023/07/01 05:10:43;;;;;;;;;0.67;0.00;;;;;20.05;93.86;132439.44;4920756;28;53029;-84
2023/07/01 05:13:09;;;;;;;;;1.00;0.00;;;;;20.17;94.48;133162.00;4920629;28;45546;-85
2023/07/01 05:15:37;;;;;;;;;0.00;0.00;;;;;20.20;94.39;133336.28;4934054;28;45529;-85
2023/07/01 05:18:05;;;;;;;;;0.00;0.00;;;;;19.84;95.90;134070.09;4930246;28;45510;-85
2023/07/01 05:20:30;;;;;;;;;0.00;0.00;;;;;20.13;96.17;134806.25;4910098;28;47531;-84
2023/07/01 05:22:56;;;;;;;;;0.00;0.00;;;;;19.73;96.46;134755.13;4934929;28;45450;-84
2023/07/01 05:25:21;;;;;;;;;0.00;0.00;;;;;20.05;96.33;134883.44;4930498;28;45472;-85
2023/07/01 05:27:46;;;;;;;;;1.00;1.00;;;;;19.94;97.74;135127.84;4936726;28;45417;-84
2023/07/01 05:30:11;;;;;;;;;0.00;0.00;;;;;19.92;99.39;135307.63;4928680;28;62370;-86
2023/07/01 05:32:37;;;;;;;;;0.00;0.00;;;;;20.00;99.60;133689.22;4927930;28;45506;-86
2023/07/01 05:35:02;;;;;;;;;0.33;0.00;;;;;20.26;99.13;131562.06;4925984;28;45514;-85
2023/07/01 05:37:28;;;;;;;;;0.00;0.00;;;;;20.21;99.22;130401.38;4931868;28;45587;-85
2023/07/01 05:39:53;;;;;;;;;0.00;0.00;;;;;20.18;98.96;129454.34;4950102;28;46468;-85
2023/07/01 05:42:19;;;;;;;;;0.00;0.00;;;;;20.34;97.61;126892.81;4936002;28;45491;-85
2023/07/01 05:44:44;;;;;;;;;2.00;0.00;;;;;20.42;96.95;125291.84;4936048;28;45487;-86
2023/07/01 05:47:09;;;;;;;;;0.00;0.00;;;;;20.38;96.34;124162.44;4936601;28;45518;-85
2023/07/01 05:49:37;;;;;;;;;0.00;0.00;;;;;20.60;95.83;123199.09;4936208;28;45778;-85
2023/07/01 05:52:03;;;;;;;;;0.00;0.00;;;;;20.70;95.34;121707.69;4936078;28;47844;-85
2023/07/01 05:54:28;;;;;;;;;0.00;0.00;;;;;20.73;95.13;122413.69;4966096;28;45370;-86
2023/07/01 05:56:54;;;;;;;;;0.00;0.00;;;;;20.62;94.57;120854.84;5017927;28;45352;-85
2023/07/01 05:59:19;;;;;;;;;0.00;0.00;;;;;20.95;93.92;120795.31;5016660;28;52769;-85
2023/07/01 06:01:44;;;;;;;;;0.00;0.00;;;;;20.96;94.55;121559.94;4964388;28;45642;-85
2023/07/01 06:04:10;;;;;;;;;0.00;0.00;;;;;20.90;93.82;121099.91;4917189;28;45553;-86
2023/07/01 06:06:35;;;;;;;;;0.00;0.00;;;;;20.24;93.12;120180.44;4917008;28;45502;-86
2023/07/01 06:09:01;;;;;;;;;0.00;0.00;;;;;21.17;93.16;121122.78;4920677;28;46030;-82
2023/07/01 06:11:26;;;;;;;;;1.00;0.00;;;;;20.71;93.73;121505.56;4982497;28;45435;-85
2023/07/01 06:13:51;;;;;;;;;0.00;0.00;;;;;20.58;93.08;120177.22;5016753;28;45408;-85
2023/07/01 06:16:17;;;;;;;;;0.00;0.00;;;;;20.94;92.23;119546.31;5016233;28;45705;-84
2023/07/01 06:19:22;;;;;;;;;0.00;0.00;;;;;21.31;92.32;120300.50;5017007;28;47176;-85
2023/07/01 06:21:47;;;;;;;;;0.00;0.00;;;;;20.60;92.55;120118.72;4949943;28;45516;-84
2023/07/01 06:24:12;;;;;;;;;0.67;0.67;;;;;21.46;92.35;120916.06;4942169;23;45610;-83
2023/07/01 06:26:38;;;;;;;;;0.00;0.00;;;;;21.49;91.94;120356.41;4927004;28;45494;-83
2023/07/01 06:29:04;;;;;;;;;0.00;0.00;;;;;21.45;91.32;117302.88;4923533;28;48583;-84
2023/07/01 06:31:29;;;;;;;;;0.00;0.00;;;;;21.33;91.14;118688.31;4933146;28;47128;-84
2023/07/01 06:33:54;;;;;;;;;0.00;0.00;;;;;21.59;90.94;118546.38;4920710;28;45891;-83
2023/07/01 06:36:20;;;;;;;;;2.00;0.00;;;;;21.60;90.84;115942.00;4925521;28;45512;-83
2023/07/01 06:38:49;;;;;;;;;0.00;0.00;;;;;21.56;91.25;118740.19;4927640;28;47228;-85
2023/07/01 06:41:14;;;;;;;;;0.00;0.00;;;;;21.72;90.46;116338.72;4964397;28;45890;-85
2023/07/01 06:43:39;;;;;;;;;0.00;0.00;;;;;21.60;89.54;110016.44;4926471;28;45685;-85
2023/07/01 06:46:06;;;;;;;;;0.00;0.00;;;;;21.86;89.08;101758.09;4904099;28;45591;-84
2023/07/01 06:48:31;;;;;;;;;0.00;0.00;;;;;21.75;89.25;105000.50;4932235;28;45745;-85
2023/07/01 06:50:57;;;;;;;;;0.00;0.00;;;;;21.85;88.95;103922.91;4913613;28;46106;-85
2023/07/01 06:53:22;;;;;;;;;0.00;0.00;;;;;21.85;88.54;99271.72;4902532;28;45438;-86
2023/07/01 06:55:47;;;;;;;;;1.00;0.00;;;;;21.76;87.98;88164.56;4938731;28;45410;-86
2023/07/01 06:58:13;;;;;;;;;0.00;0.00;;;;;21.38;87.24;86482.66;4960192;28;45525;-86
2023/07/01 07:00:39;;;;;;;;;0.25;0.25;;;;;21.84;87.98;90953.75;4924727;28;45505;-86
2023/07/01 07:03:04;;;;;;;;;0.67;0.00;;;;;21.80;87.58;76678.28;4927973;28;45647;-85
2023/07/01 07:05:29;;;;;;;;;1.00;0.00;;;;;21.93;86.75;66890.16;4928159;28;45518;-85
2023/07/01 07:07:55;;;;;;;;;0.00;0.00;;;;;21.86;86.61;56192.19;4932437;28;48027;-85
2023/07/01 07:10:20;;;;;;;;;2.00;1.00;;;;;22.09;86.97;76111.34;4927757;28;45351;-86
2023/07/01 07:12:46;;;;;;;;;2.00;0.33;;;;;22.15;85.98;55357.78;4930850;28;45792;-85
2023/07/01 07:15:11;;;;;;;;;0.00;0.00;;;;;22.27;88.37;101092.31;4923096;28;45585;-83
2023/07/01 07:17:36;;;;;;;;;0.33;0.00;;;;;22.11;87.79;97265.66;4931724;28;45950;-83
2023/07/01 07:20:02;;;;;;;;;0.50;0.50;;;;;22.07;87.46;88606.38;4928591;28;45537;-83
2023/07/01 07:22:28;;;;;;;;;0.00;0.00;;;;;22.33;87.78;91786.94;4928718;28;45497;-83
2023/07/01 07:24:53;;;;;;;;;0.00;0.00;;;;;22.34;87.93;98850.75;4930196;28;45521;-83
2023/07/01 07:27:18;;;;;;;;;0.00;0.00;;;;;22.28;87.79;93613.81;4933615;28;46612;-85
2023/07/01 07:29:44;;;;;;;;;0.00;0.00;;;;;22.31;87.67;84685.63;4922207;28;45477;-85
2023/07/01 07:32:09;;;;;;;;;0.00;0.00;;;;;22.40;87.90;89865.41;4928723;28;45843;-84
2023/07/01 07:34:35;;;;;;;;;0.00;0.00;;;;;22.41;86.74;73924.81;4932702;28;45431;-84
2023/07/01 07:37:00;;;;;;;;;0.00;0.00;;;;;22.55;86.08;55414.13;4925144;28;48109;-84
2023/07/01 07:39:26;;;;;;;;;0.00;0.00;;;;;22.55;86.14;47404.84;4926427;28;46200;-84
2023/07/01 07:41:51;;;;;;;;;0.00;0.00;;;;;22.67;85.60;43822.91;4921161;28;45487;-84
2023/07/01 07:44:17;;;;;;;;;0.00;0.00;;;;;22.75;86.31;49662.97;4935142;28;45844;-84
2023/07/01 07:46:44;;;;;;;;;0.00;0.00;;;;;22.70;85.37;23497.78;4928256;28;45656;-84
2023/07/01 07:49:09;;;;;;;;;0.00;0.00;;;;;22.93;85.05;17095.97;4930765;28;45441;-85
2023/07/01 07:51:35;;;;;;;;;0.00;0.00;;;;;23.00;84.17;94.34;4916652;28;45509;-84
2023/07/01 07:54:00;;;;;;;;;0.67;0.00;;;;;22.94;84.38;-435.94;4927032;28;45470;-85
2023/07/01 07:56:25;;;;;;;;;0.00;0.00;;;;;22.84;82.67;-15984.47;4934518;28;45539;-85
2023/07/01 07:58:51;;;;;;;;;0.00;0.00;;;;;22.76;81.90;-19813.50;4934001;28;45717;-85
2023/07/01 08:01:17;;;;;;;;;0.00;0.00;;;;;23.02;81.99;-19820.28;4930533;28;45558;-86
2023/07/01 08:03:42;;;;;;;;;0.00;0.00;;;;;22.86;82.04;-19816.03;4926843;28;45400;-85
2023/07/01 08:06:08;;;;;;;;;29.00;29.00;;;;;22.72;81.15;-19812.44;4915670;28;45510;-86
2023/07/01 08:08:35;;;;;;;;;12.33;12.33;;;;;23.23;81.89;-19825.75;4915478;28;45417;-85
2023/07/01 08:11:00;;;;;;;;;0.33;0.33;;;;;23.18;81.50;-19824.53;4931703;28;45485;-85
2023/07/01 08:13:26;;;;;;;;;0.00;0.00;;;;;23.24;81.66;-19826.00;4926852;28;45748;-85
2023/07/01 08:15:51;;;;;;;;;11.33;11.00;;;;;23.05;83.75;1213.25;4899335;28;48218;-85
2023/07/01 08:18:17;;;;;;;;;0.00;0.00;;;;;23.10;83.48;-795.63;4914978;28;45386;-84
2023/07/01 08:20:46;;;;;;;;;0.67;0.67;;;;;23.13;85.02;23694.69;4924413;28;45467;-84
2023/07/01 08:23:13;;;;;;;;;0.67;0.67;;;;;23.09;85.61;44905.47;4936066;28;45684;-90
2023/07/01 08:25:39;;;;;;;;;0.00;0.00;;;;;23.05;84.92;17909.19;4921345;28;46478;-93
2023/07/01 08:28:05;;;;;;;;;0.00;0.00;;;;;22.96;84.67;24138.22;4930200;28;45415;-93
2023/07/01 08:30:30;;;;;;;;;0.00;0.00;;;;;22.86;83.37;-6061.81;4936266;28;45396;-91
2023/07/01 08:32:55;;;;;;;;;0.00;0.00;;;;;22.62;83.14;-7398.59;4937544;28;45366;-91
2023/07/01 08:35:21;;;;;;;;;0.00;0.00;;;;;22.64;83.42;-1403.91;4934355;28;46205;-93
2023/07/01 08:37:46;;;;;;;;;0.00;0.00;;;;;22.61;85.64;43920.06;4933590;28;45368;-93
2023/07/01 08:40:12;;;;;;;;;0.00;0.00;;;;;22.42;84.98;36313.88;4922700;28;45459;-94
2023/07/01 08:42:48;;;;;;;;;0.00;0.00;;;;;22.52;85.49;54114.16;4940020;28;45197;-95
2023/07/01 08:45:13;;;;;;;;;0.00;0.00;;;;;22.58;86.33;81850.56;4922215;28;47262;-94
2023/07/01 08:47:40;;;;;;;;;0.50;0.00;;;;;22.76;86.78;77590.22;4938676;28;45357;-93
2023/07/01 08:50:07;;;;;;;;;0.00;0.00;;;;;22.61;84.61;19927.41;4937838;28;45989;-93
2023/07/01 08:52:42;;;;;;;;;0.00;0.00;;;;;22.74;83.77;-834.19;4978844;28;45339;-93
2023/07/01 08:55:12;;;;;;;;;0.00;0.00;;;;;22.80;84.63;21284.97;4923181;28;46911;-93
2023/07/01 08:57:41;;;;;;;;;0.00;0.00;;;;;23.00;84.17;15360.34;4921488;28;45403;-92
2023/07/01 09:00:09;;;;;;;;;0.00;0.00;;;;;22.91;83.57;-4543.19;4921514;28;45450;-92
2023/07/01 09:02:35;;;;;;;;;1.00;1.00;;;;;23.35;83.73;7905.31;4960439;28;45446;-90
2023/07/01 09:05:01;;;;;;;;;0.00;0.00;;;;;23.35;81.54;-19828.94;4938822;28;45742;-92
2023/07/01 09:07:26;;;;;;;;;1.00;1.00;;;;;23.51;82.69;-16058.66;4924111;28;46062;-92
2023/07/01 09:09:52;;;;;;;;;0.00;0.00;;;;;24.25;82.05;-19852.16;4921911;28;45257;-95
2023/07/01 09:12:17;;;;;;;;;0.00;0.00;;;;;24.17;80.41;-19850.16;4922931;28;45366;-94
2023/07/01 09:15:05;;;;;;;;;0.00;0.00;;;;;24.42;79.02;-19856.53;4919175;28;48114;-94
2023/07/01 09:17:36;;;;;;;;;0.25;0.25;;;;;24.90;76.64;-19869.00;4948627;28;45450;-91
2023/07/01 09:20:06;;;;;;;;;0.00;0.00;;;;;25.24;75.97;-19877.75;5022864;28;45470;-94
2023/07/01 09:22:34;;;;;;;;;1.00;1.00;;;;;25.53;74.09;-19885.16;4977748;28;45446;-91
2023/07/01 09:24:59;;;;;;;;;0.00;0.00;;;;;25.48;73.51;-19883.97;4916276;28;48516;-92
2023/07/01 09:27:38;;;;;;;;;0.00;0.00;;;;;25.33;72.15;-19879.97;4935449;28;46471;-91
2023/07/01 09:30:23;;;;;;;;;0.00;0.00;;;;;25.22;71.10;-19877.22;4920051;28;45367;-90
2023/07/01 09:32:48;;;;;;;;;0.00;0.00;;;;;24.68;72.41;-19863.16;4944280;28;45657;-92
2023/07/01 09:35:14;;;;;;;;;1.00;1.00;;;;;24.57;72.18;-19860.38;4970408;28;45839;-93
2023/07/01 09:37:39;;;;;;;;;1.33;0.00;;;;;24.58;73.78;-19860.63;4925821;28;45432;-95
2023/07/01 09:40:17;;;;;;;;;0.00;0.00;;;;;24.39;72.53;-19855.72;4922133;28;45359;-95
2023/07/01 09:42:54;;;;;;;;;0.00;0.00;;;;;24.35;73.22;-19854.81;4922386;28;45510;-94
2023/07/01 09:45:19;;;;;;;;;0.00;0.00;;;;;24.17;71.80;-19850.16;4921427;28;47135;-94
2023/07/01 09:47:49;;;;;;;;;0.00;0.00;;;;;24.57;72.69;-19860.38;4936733;28;45838;-94
2023/07/01 09:50:29;;;;;;;;;3.00;1.00;;;;;25.63;71.66;-19887.78;4920124;28;45766;-91
2023/07/01 09:52:56;;;;;;;;;0.25;0.25;;;;;25.96;68.30;-19896.41;4937031;28;45434;-93
2023/07/01 09:55:22;;;;;;;;;0.00;0.00;;;;;26.17;67.00;-19901.81;4931151;28;49190;-93
2023/07/01 09:57:48;;;;;;;;;0.00;0.00;;;;;26.37;66.31;-19906.97;4936746;28;45438;-94
2023/07/01 10:00:16;;;;;;;;;0.00;0.00;;;;;26.53;64.81;-19911.06;4922569;28;45529;-96
2023/07/01 10:02:45;;;;;;;;;0.00;0.00;;;;;26.42;64.50;-19908.16;4938022;28;45803;-95
2023/07/01 10:05:14;;;;;;;;;0.00;0.00;;;;;26.22;63.71;-19903.00;4921963;28;48007;-93
2023/07/01 10:07:40;;;;;;;;;0.00;0.00;;;;;25.98;63.77;-19896.94;4937183;28;45680;-93
2023/07/01 10:10:17;;;;;;;;;0.00;0.00;;;;;25.86;63.46;-19893.88;4936643;28;45471;-91
2023/07/01 10:12:45;;;;;;;;;0.00;0.00;;;;;25.71;63.13;-19889.91;4937599;28;45698;-93
2023/07/01 10:15:14;;;;;;;;;0.00;0.00;;;;;25.65;62.99;-19888.47;4913512;28;46719;-93
2023/07/01 10:17:47;;;;;;;;;0.00;0.00;;;;;25.45;62.71;-19883.28;4934215;28;45499;-95
2023/07/01 10:20:28;;;;;;;;;0.00;0.00;;;;;25.53;61.91;-19885.16;4938800;28;45394;-93
2023/07/01 10:22:59;;;;;;;;;0.00;0.00;;;;;25.58;61.17;-19886.59;4935216;28;45546;-85
2023/07/01 10:25:35;;;;;;;;;0.00;0.00;;;;;25.74;61.66;-19890.72;4947789;28;45491;-85
2023/07/01 10:28:01;;;;;;;;;1.33;0.00;;;;;25.84;60.75;-19893.22;4968352;28;45482;-86
2023/07/01 10:30:46;;;;;;;;;0.00;0.00;;;;;25.87;60.31;-19894.00;4935185;28;45466;-86
2023/07/01 10:33:27;;;;;;;;;0.00;0.00;;;;;26.26;60.45;-19904.19;4899788;28;45881;-86
2023/07/01 10:36:04;;;;;;;;;1.75;1.00;;;;;26.61;58.49;-19913.06;4933713;28;46247;-85
2023/07/01 10:38:30;;;;;;;;;2.50;0.00;;;;;26.74;58.73;-19916.50;4936840;28;45354;-86
2023/07/01 10:40:56;;;;;;;;;0.75;0.75;;;;;26.82;57.16;-19918.63;4919974;28;45613;-86
2023/07/01 10:43:32;;;;;;;;;0.00;0.00;;;;;26.80;57.40;-19918.09;4937968;28;45446;-88
2023/07/01 10:46:19;;;;;;;;;0.25;0.25;;;;;26.70;56.63;-19915.56;4928861;28;45905;-87
2023/07/01 10:49:05;;;;;;;;;1.00;0.00;;;;;26.57;57.39;-19912.00;4934957;28;45763;-86
2023/07/01 10:51:45;;;;;;;;;0.00;0.00;;;;;26.50;57.34;-19910.41;4922518;28;45478;-87
2023/07/01 10:54:11;;;;;;;;;1.75;0.00;;;;;26.28;57.46;-19904.72;4934012;28;45550;-87
2023/07/01 10:57:17;;;;;;;;;1.50;0.25;;;;;26.31;57.37;-19905.38;4934306;28;46477;-86
2023/07/01 10:59:42;;;;;;;;;0.00;0.00;;;;;26.07;55.84;-19899.31;5007197;28;45542;-85
2023/07/01 11:02:29;;;;;;;;;0.00;0.00;;;;;25.99;55.86;-19897.06;4934903;28;45481;-87
2023/07/01 11:05:03;;;;;;;;;1.00;1.00;;;;;26.47;56.62;-19909.50;4931793;28;45391;-88
2023/07/01 11:07:29;;;;;;;;;0.00;0.00;;;;;26.84;55.96;-19919.16;4917810;28;47368;-86
2023/07/01 11:09:55;;;;;;;;;0.00;0.00;;;;;27.09;55.53;-19925.63;4934989;28;45509;-87
2023/07/01 11:12:23;;;;;;;;;1.00;1.00;;;;;27.29;54.56;-19930.63;4935056;28;45455;-86
2023/07/01 11:14:52;;;;;;;;;0.00;0.00;;;;;27.19;53.44;-19928.00;4935562;28;45545;-87
2023/07/01 11:17:19;;;;;;;;;1.00;1.00;;;;;26.92;53.81;-19921.13;4976146;28;46316;-87
2023/07/01 11:19:45;;;;;;;;;2.50;1.00;;;;;26.71;54.23;-19915.72;4957291;28;45529;-86
2023/07/01 11:22:12;;;;;;;;;10.33;7.00;;;;;26.67;54.73;-19914.66;4936144;28;45478;-92
2023/07/01 11:24:38;;;;;;;;;0.50;0.50;;;;;26.30;55.10;-19905.25;4937644;28;45481;-92
2023/07/01 11:27:07;;;;;;;;;0.75;0.75;;;;;26.23;55.05;-19903.28;4919581;28;46987;-93
2023/07/01 11:29:33;;;;;;;;;1.00;1.00;;;;;26.42;55.70;-19908.31;4923730;28;45843;-94
2023/07/01 11:32:01;;;;;;;;;1.00;1.00;;;;;26.56;54.99;-19911.88;4942111;28;45386;-95
2023/07/01 11:34:30;;;;;;;;;0.25;0.00;;;;;25.95;56.20;-19896.13;4944003;28;44820;-96
2023/07/01 11:36:57;;;;;;;;;1.00;1.00;;;;;26.29;54.58;-19905.00;4924292;28;48151;-95
2023/07/01 11:39:23;;;;;;;;;0.75;0.75;;;;;27.64;53.88;-19939.63;4937973;28;45422;-96
2023/07/01 11:42:02;;;;;;;;;0.00;0.00;;;;;27.72;53.00;-19941.72;4938864;28;45325;-96
2023/07/01 11:44:32;;;;;;;;;1.00;1.00;;;;;27.62;52.85;-19939.22;4938921;28;45433;-96
2023/07/01 11:46:57;;;;;;;;;1.00;1.00;;;;;27.42;51.15;-19934.06;4942459;28;48050;-95
2023/07/01 11:49:29;;;;;;;;;0.50;0.50;;;;;27.43;52.74;-19934.34;4934534;28;45791;-95
2023/07/01 11:52:03;;;;;;;;;2.00;1.00;;;;;27.28;52.68;-19930.38;4916745;28;45394;-96
2023/07/01 11:54:48;;;;;;;;;1.00;0.00;;;;;27.30;53.51;-19930.91;4937305;28;45240;-96
2023/07/01 11:57:19;;;;;;;;;1.00;1.00;;;;;27.16;53.54;-19927.47;4936289;28;47611;-89
2023/07/01 11:59:46;;;;;;;;;1.00;1.00;;;;;27.11;53.78;-19926.16;4930986;28;45386;-96
2023/07/01 12:02:12;;;;;;;;;0.75;0.75;;;;;27.29;53.08;-19930.63;4937066;28;45483;-95
2023/07/01 12:04:38;;;;;;;;;1.00;1.00;;;;;27.15;54.28;-19927.19;4924421;28;45289;-93
2023/07/01 12:07:16;;;;;;;;;0.00;0.00;;;;;27.13;53.42;-19926.53;4939106;28;47052;-95
2023/07/01 12:09:45;;;;;;;;;0.00;0.00;;;;;27.13;53.05;-19926.53;4936959;28;45407;-96
2023/07/01 12:12:14;;;;;;;;;0.00;0.00;;;;;26.82;52.90;-19918.63;4940357;28;45301;-95
2023/07/01 12:14:40;;;;;;;;;1.00;1.00;;;;;26.89;52.56;-19918.47;4947383;28;45445;-96
2023/07/01 12:17:06;;;;;;;;;1.00;1.00;;;;;26.46;52.84;-19907.38;4924612;28;48334;-95
2023/07/01 12:19:31;;;;;;;;;1.00;1.00;;;;;26.58;52.68;-19910.41;4940826;28;45935;-96
2023/07/01 12:21:59;;;;;;;;;1.67;1.67;;;;;26.54;52.75;-19909.34;4929052;28;45450;-92
2023/07/01 12:24:27;;;;;;;;;1.00;1.00;;;;;26.49;52.15;-19568.81;4917729;28;45826;-91
2023/07/01 12:26:55;;;;;;;;;2.00;2.00;;;;;26.53;52.01;-19569.84;4934036;28;45729;-92
2023/07/01 12:29:24;;;;;;;;;2.00;2.00;;;;;26.61;51.59;-19571.81;4934961;28;45489;-92
2023/07/01 12:31:50;;;;;;;;;1.00;1.00;;;;;26.64;52.86;-19911.88;4933326;28;45466;-92
2023/07/01 12:34:16;;;;;;;;;1.00;1.00;;;;;26.70;51.42;-19574.13;4935205;28;45521;-91
2023/07/01 12:36:46;;;;;;;;;2.00;2.00;;;;;26.78;53.02;-19915.56;4929152;28;45980;-92
2023/07/01 12:39:13;;;;;;;;;2.33;2.33;;;;;26.76;51.18;-19575.41;4934293;28;45656;-91
2023/07/01 12:41:39;;;;;;;;;2.00;2.00;;;;;26.84;52.55;-19577.50;4927843;28;45423;-90
2023/07/01 12:44:07;;;;;;;;;3.00;2.00;;;;;26.87;50.11;-19238.81;4935467;28;45399;-91
2023/07/01 12:46:32;;;;;;;;;2.00;2.00;;;;;27.09;50.52;-19244.13;4940037;28;46002;-90
2023/07/01 12:49:00;;;;;;;;;2.00;2.00;;;;;26.81;51.27;-19237.31;4921421;28;45479;-90
2023/07/01 12:51:26;;;;;;;;;1.33;1.33;;;;;27.04;50.62;-19243.00;4936586;28;45584;-90
2023/07/01 12:53:56;;;;;;;;;3.00;1.00;;;;;27.05;50.48;-19243.13;4937447;28;45651;-89
2023/07/01 12:56:22;;;;;;;;;1.67;1.67;;;;;27.01;50.87;-18902.44;4936132;28;47515;-89
2023/07/01 12:58:47;;;;;;;;;4.00;2.00;;;;;26.95;51.37;-18901.19;4961227;28;45760;-89
2023/07/01 13:01:13;;;;;;;;;1.00;1.00;;;;;26.98;49.72;-18222.28;4924227;28;45487;-89
2023/07/01 13:03:40;;;;;;;;;3.00;2.00;;;;;27.08;49.24;-17545.13;4941973;28;45207;-96
2023/07/01 13:06:25;;;;;;;;;2.67;2.00;;;;;26.90;49.65;-17541.06;4930296;28;46883;-87
2023/07/01 13:08:50;;;;;;;;;2.00;2.00;;;;;26.95;49.43;-17202.38;4934862;28;45470;-87
2023/07/01 13:11:16;;;;;;;;;1.67;1.67;;;;;26.79;49.52;-17198.97;4935953;28;45447;-86
2023/07/01 13:13:42;;;;;;;;;2.00;1.00;;;;;26.93;49.84;-17201.94;4934464;28;45627;-87
2023/07/01 13:16:28;;;;;;;;;1.33;1.33;;;;;26.83;49.87;-17199.75;4947491;28;45600;-86
2023/07/01 13:18:55;;;;;;;;;1.00;1.00;;;;;27.06;51.18;-17544.56;4921115;28;45575;-87
2023/07/01 13:21:20;;;;;;;;;1.33;1.33;;;;;27.10;50.31;-17205.69;4928260;28;45958;-87
2023/07/01 13:23:46;;;;;;;;;3.00;2.00;;;;;27.12;50.27;-17206.13;4936997;28;45363;-89
2023/07/01 13:26:15;;;;;;;;;1.33;1.33;;;;;27.06;48.29;-16185.06;4938244;28;47372;-87
2023/07/01 13:28:40;;;;;;;;;2.00;2.00;;;;;26.75;48.73;-16178.84;4934787;28;45451;-87
2023/07/01 13:31:06;;;;;;;;;2.00;2.00;;;;;26.89;49.75;-16181.69;4920598;28;45392;-87
2023/07/01 13:33:31;;;;;;;;;3.00;3.00;;;;;26.81;48.76;-15840.09;4933193;28;45600;-88
2023/07/01 13:35:59;;;;;;;;;2.00;2.00;;;;;26.86;48.95;-15841.09;4960872;28;46460;-88
2023/07/01 13:38:25;;;;;;;;;1.00;1.00;;;;;26.73;48.28;-15158.94;4921302;28;46424;-88
2023/07/01 13:40:51;;;;;;;;;3.67;3.00;;;;;26.69;48.57;-15158.19;4934563;28;45801;-88
2023/07/01 13:43:22;;;;;;;;;3.00;2.00;;;;;26.57;48.60;-14816.13;4937657;28;45376;-91
2023/07/01 13:45:47;;;;;;;;;3.00;1.33;;;;;26.57;48.35;-13796.53;4932321;28;46798;-91
2023/07/01 13:48:25;;;;;;;;;1.67;1.00;;;;;26.51;48.09;-13795.63;4924819;28;45527;-89
2023/07/01 13:50:51;;;;;;;;;0.67;0.67;;;;;26.31;48.63;-14132.22;4936679;28;45635;-94
2023/07/01 13:53:19;;;;;;;;;2.00;2.00;;;;;26.50;47.64;-13455.63;4939463;28;45445;-93
2023/07/01 13:55:46;;;;;;;;;3.00;3.00;;;;;26.13;49.25;-14129.13;5004661;28;47640;-91
2023/07/01 13:58:11;;;;;;;;;2.33;2.33;;;;;26.34;49.84;-14472.41;4973488;28;45431;-92
2023/07/01 14:00:42;;;;;;;;;1.00;1.00;;;;;26.71;49.10;-14478.75;4919725;28;45758;-91
2023/07/01 14:03:21;;;;;;;;;1.00;1.00;;;;;26.48;49.71;-14814.56;4902807;28;45393;-93
2023/07/01 14:05:52;;;;;;;;;2.67;1.00;;;;;26.87;51.12;-15841.41;4916657;28;47131;-96
2023/07/01 14:08:21;;;;;;;;;3.00;1.00;;;;;26.72;51.27;-15838.44;4926319;28;46300;-94
2023/07/01 14:10:46;;;;;;;;;7.00;1.33;;;;;26.84;50.62;-15840.81;4941803;28;45368;-95
2023/07/01 14:13:13;;;;;;;;;2.00;2.00;;;;;26.84;49.46;-14820.94;4926578;28;45302;-95
2023/07/01 14:15:46;;;;;;;;;2.00;2.00;;;;;26.77;49.63;-15159.69;4921459;28;48245;-94
2023/07/01 14:18:17;;;;;;;;;5.00;2.00;;;;;26.92;50.43;-15162.41;4922672;28;45778;-94
2023/07/01 14:20:44;;;;;;;;;1.00;1.00;;;;;26.90;49.58;-14822.13;4933266;28;45328;-95
2023/07/01 14:23:17;;;;;;;;;2.00;2.00;;;;;26.72;49.44;-14478.94;4959117;28;46163;-84
2023/07/01 14:25:44;;;;;;;;;2.00;2.00;;;;;26.68;49.52;-14478.31;4926772;28;45546;-84
2023/07/01 14:28:11;;;;;;;;;1.00;1.00;;;;;26.87;50.05;-14821.50;4937208;28;45856;-84
2023/07/01 14:30:45;;;;;;;;;1.00;1.00;;;;;26.84;50.12;-14821.03;4937438;28;45540;-84
2023/07/01 14:33:11;;;;;;;;;2.00;2.00;;;;;26.78;49.54;-14480.00;4925036;28;45498;-84
2023/07/01 14:35:36;;;;;;;;;2.00;2.00;;;;;26.77;49.90;-14819.69;4935849;28;46360;-84
2023/07/01 14:38:02;;;;;;;;;3.00;2.00;;;;;26.70;49.02;-13798.69;4934951;28;45512;-84
2023/07/01 14:40:27;;;;;;;;;1.33;1.33;;;;;26.79;48.83;-13460.03;4923700;28;45499;-83
2023/07/01 14:42:53;;;;;;;;;4.00;2.67;;;;;26.77;50.89;-14819.75;4919212;28;45508;-84
2023/07/01 14:45:18;;;;;;;;;2.00;2.00;;;;;26.79;49.28;-13800.09;4935979;28;46495;-84
2023/07/01 14:47:43;;;;;;;;;1.00;1.00;;;;;26.55;49.30;-13796.19;4918543;28;45540;-84
2023/07/01 14:50:10;;;;;;;;;2.00;2.00;;;;;26.76;48.83;-13459.66;4936013;28;45408;-84
2023/07/01 14:52:36;;;;;;;;;1.67;1.67;;;;;26.39;49.43;-13453.88;4936122;28;45699;-84
2023/07/01 14:55:01;;;;;;;;;1.25;1.25;;;;;26.81;49.51;-13800.41;4934785;28;46535;-84
2023/07/01 14:57:26;;;;;;;;;2.00;1.00;;;;;26.80;49.12;-13800.34;4936189;28;45501;-83
2023/07/01 14:59:51;;;;;;;;;1.00;1.00;;;;;26.74;49.16;-13459.41;4927502;28;45777;-83
2023/07/01 15:02:18;;;;;;;;;1.33;1.33;;;;;26.72;49.69;-13799.00;4924508;28;45482;-83
2023/07/01 15:04:43;;;;;;;;;2.00;2.00;;;;;26.57;50.53;-14136.41;4940244;28;48581;-90
2023/07/01 15:07:09;;;;;;;;;3.00;3.00;;;;;26.56;50.02;-13796.38;4933899;28;46601;-84
2023/07/01 15:09:35;;;;;;;;;3.00;3.00;;;;;26.41;49.27;-13454.19;4934736;28;45822;-85
2023/07/01 15:12:00;;;;;;;;;3.00;1.00;;;;;26.74;49.40;-13459.31;4918143;28;46240;-85
2023/07/01 15:14:26;;;;;;;;;2.00;2.00;;;;;26.72;50.00;-13799.09;4935783;28;47011;-84
2023/07/01 15:16:51;;;;;;;;;1.00;1.00;;;;;26.66;49.48;-13458.13;4935056;28;45702;-84
2023/07/01 15:19:17;;;;;;;;;2.33;2.33;;;;;26.20;49.43;-13450.91;4935263;28;45838;-86
2023/07/01 15:21:44;;;;;;;;;5.00;5.00;;;;;26.12;50.26;-13449.63;4950526;28;45595;-84
2023/07/01 15:24:09;;;;;;;;;3.00;3.00;;;;;26.46;50.36;-13794.88;4916524;28;45537;-85
2023/07/01 15:26:35;;;;;;;;;1.33;1.33;;;;;25.81;49.89;-13444.81;4915550;28;45404;-85
2023/07/01 15:29:00;;;;;;;;;2.33;2.00;;;;;26.36;50.77;-13453.38;4915941;28;45468;-85